sensor_id;sensor_type;location;lat;lon;timestamp;temperature;humidity
30983;DHT22;17660;52.578;13.288;2023-03-05T00:00:53;4.70;99.90
30983;DHT22;17660;52.578;13.288;2023-03-05T00:03:20;4.50;99.90
30983;DHT22;17660;52.578;13.288;2023-03-05T00:05:46;4.50;99.90
30983;DHT22;17660;52.578;13.288;2023-03-05T00:08:13;4.50;99.90
30983;DHT22;17660;52.578;13.288;2023-03-05T00:10:40;4.40;99.90
30983;DHT22;17660;52.578;13.288;2023-03-05T00:13:07;4.40;99.90
30983;DHT22;17660;52.578;13.288;2023-03-05T00:15:39;4.40;99.90
30983;DHT22;17660;52.578;13.288;2023-03-05T00:18:06;4.30;99.90
30983;DHT22;17660;52.578;13.288;2023-03-05T00:20:34;4.20;99.90
30983;DHT22;17660;52.578;13.288;2023-03-05T00:23:01;4.20;99.90
30983;DHT22;17660;52.578;13.288;2023-03-05T00:25:28;4.10;99.90
30983;DHT22;17660;52.578;13.288;2023-03-05T00:27:54;4.10;99.90
30983;DHT22;17660;52.578;13.288;2023-03-05T00:30:21;4.00;99.90
30983;DHT22;17660;52.578;13.288;2023-03-05T00:32:48;3.90;99.90
30983;DHT22;17660;52.578;13.288;2023-03-05T00:35:14;3.80;99.90
30983;DHT22;17660;52.578;13.288;2023-03-05T00:37:41;3.80;99.90
30983;DHT22;17660;52.578;13.288;2023-03-05T00:40:09;3.80;99.90
30983;DHT22;17660;52.578;13.288;2023-03-05T00:42:35;3.90;99.90
30983;DHT22;17660;52.578;13.288;2023-03-05T00:45:05;3.90;99.90
30983;DHT22;17660;52.578;13.288;2023-03-05T00:47:32;3.90;99.90
30983;DHT22;17660;52.578;13.288;2023-03-05T00:49:59;3.90;99.90
30983;DHT22;17660;52.578;13.288;2023-03-05T00:52:26;3.90;99.90
30983;DHT22;17660;52.578;13.288;2023-03-05T00:54:53;4.00;99.90
30983;DHT22;17660;52.578;13.288;2023-03-05T00:57:19;4.10;99.90
30983;DHT22;17660;52.578;13.288;2023-03-05T00:59:46;4.00;99.90
30983;DHT22;17660;52.578;13.288;2023-03-05T01:02:13;4.00;99.90
30983;DHT22;17660;52.578;13.288;2023-03-05T01:04:40;4.00;99.90
30983;DHT22;17660;52.578;13.288;2023-03-05T01:07:07;4.00;99.90
30983;DHT22;17660;52.578;13.288;2023-03-05T01:09:33;4.00;99.90
30983;DHT22;17660;52.578;13.288;2023-03-05T01:12:00;4.10;99.90
30983;DHT22;17660;52.578;13.288;2023-03-05T01:14:27;4.00;99.90
30983;DHT22;17660;52.578;13.288;2023-03-05T01:16:54;4.00;99.90
30983;DHT22;17660;52.578;13.288;2023-03-05T01:19:20;4.10;99.90
30983;DHT22;17660;52.578;13.288;2023-03-05T01:21:47;4.10;99.90
30983;DHT22;17660;52.578;13.288;2023-03-05T01:24:14;4.10;99.90
30983;DHT22;17660;52.578;13.288;2023-03-05T01:26:40;4.00;99.90
30983;DHT22;17660;52.578;13.288;2023-03-05T01:29:07;4.00;99.90
30983;DHT22;17660;52.578;13.288;2023-03-05T01:31:34;4.00;99.90
30983;DHT22;17660;52.578;13.288;2023-03-05T01:34:01;4.00;99.90
30983;DHT22;17660;52.578;13.288;2023-03-05T01:36:27;3.90;99.90
30983;DHT22;17660;52.578;13.288;2023-03-05T01:38:54;3.80;99.90
30983;DHT22;17660;52.578;13.288;2023-03-05T01:41:21;3.80;99.90
30983;DHT22;17660;52.578;13.288;2023-03-05T01:43:49;3.80;99.90
30983;DHT22;17660;52.578;13.288;2023-03-05T01:52:16;3.70;99.90
30983;DHT22;17660;52.578;13.288;2023-03-05T01:54:56;3.70;99.90
30983;DHT22;17660;52.578;13.288;2023-03-05T01:57:29;3.60;99.90
30983;DHT22;17660;52.578;13.288;2023-03-05T02:00:07;3.60;99.90
30983;DHT22;17660;52.578;13.288;2023-03-05T02:02:34;3.50;99.20
30983;DHT22;17660;52.578;13.288;2023-03-05T02:05:10;3.50;99.50
30983;DHT22;17660;52.578;13.288;2023-03-05T02:07:37;3.50;99.30
30983;DHT22;17660;52.578;13.288;2023-03-05T02:12:41;3.40;99.40
30983;DHT22;17660;52.578;13.288;2023-03-05T02:15:09;3.40;98.80
30983;DHT22;17660;52.578;13.288;2023-03-05T02:17:37;3.40;98.40
30983;DHT22;17660;52.578;13.288;2023-03-05T02:20:08;3.50;98.60
30983;DHT22;17660;52.578;13.288;2023-03-05T02:22:35;3.50;98.40
30983;DHT22;17660;52.578;13.288;2023-03-05T02:25:12;3.50;98.10
30983;DHT22;17660;52.578;13.288;2023-03-05T02:27:39;3.50;98.00
30983;DHT22;17660;52.578;13.288;2023-03-05T02:30:08;3.50;98.30
30983;DHT22;17660;52.578;13.288;2023-03-05T02:32:35;3.50;98.80
30983;DHT22;17660;52.578;13.288;2023-03-05T02:35:02;3.50;98.40
30983;DHT22;17660;52.578;13.288;2023-03-05T02:37:29;3.40;98.20
30983;DHT22;17660;52.578;13.288;2023-03-05T02:39:56;3.30;98.10
30983;DHT22;17660;52.578;13.288;2023-03-05T02:42:22;3.30;98.30
30983;DHT22;17660;52.578;13.288;2023-03-05T02:44:49;3.20;98.40
30983;DHT22;17660;52.578;13.288;2023-03-05T02:47:16;3.10;98.50
30983;DHT22;17660;52.578;13.288;2023-03-05T02:49:43;3.10;98.80
30983;DHT22;17660;52.578;13.288;2023-03-05T02:52:09;3.20;98.50
30983;DHT22;17660;52.578;13.288;2023-03-05T02:54:36;3.20;98.60
30983;DHT22;17660;52.578;13.288;2023-03-05T02:57:03;3.10;98.60
30983;DHT22;17660;52.578;13.288;2023-03-05T02:59:29;3.20;98.70
30983;DHT22;17660;52.578;13.288;2023-03-05T03:01:56;3.20;98.50
30983;DHT22;17660;52.578;13.288;2023-03-05T03:04:23;3.20;98.60
30983;DHT22;17660;52.578;13.288;2023-03-05T03:06:49;3.20;98.60
30983;DHT22;17660;52.578;13.288;2023-03-05T03:09:16;3.30;98.50
30983;DHT22;17660;52.578;13.288;2023-03-05T03:11:43;3.30;98.60
30983;DHT22;17660;52.578;13.288;2023-03-05T03:14:10;3.30;98.60
30983;DHT22;17660;52.578;13.288;2023-03-05T03:16:36;3.40;98.80
30983;DHT22;17660;52.578;13.288;2023-03-05T03:19:03;3.40;98.60
30983;DHT22;17660;52.578;13.288;2023-03-05T03:21:31;3.40;98.80
30983;DHT22;17660;52.578;13.288;2023-03-05T03:23:57;3.40;98.60
30983;DHT22;17660;52.578;13.288;2023-03-05T03:26:24;3.40;98.70
30983;DHT22;17660;52.578;13.288;2023-03-05T03:28:51;3.40;98.50
30983;DHT22;17660;52.578;13.288;2023-03-05T03:31:18;3.40;98.50
30983;DHT22;17660;52.578;13.288;2023-03-05T03:33:44;3.40;98.40
30983;DHT22;17660;52.578;13.288;2023-03-05T03:36:11;3.40;98.50
30983;DHT22;17660;52.578;13.288;2023-03-05T03:38:38;3.40;98.60
30983;DHT22;17660;52.578;13.288;2023-03-05T03:41:06;3.30;98.70
30983;DHT22;17660;52.578;13.288;2023-03-05T03:43:36;3.30;99.00
30983;DHT22;17660;52.578;13.288;2023-03-05T03:46:06;3.30;99.10
30983;DHT22;17660;52.578;13.288;2023-03-05T03:48:33;3.30;99.10
30983;DHT22;17660;52.578;13.288;2023-03-05T03:51:04;3.20;99.20
30983;DHT22;17660;52.578;13.288;2023-03-05T03:53:31;3.20;99.30
30983;DHT22;17660;52.578;13.288;2023-03-05T03:55:58;3.10;99.50
30983;DHT22;17660;52.578;13.288;2023-03-05T03:58:25;3.10;99.80
30983;DHT22;17660;52.578;13.288;2023-03-05T04:00:51;3.00;99.90
30983;DHT22;17660;52.578;13.288;2023-03-05T04:03:18;2.90;99.90
30983;DHT22;17660;52.578;13.288;2023-03-05T04:05:45;2.80;99.90
30983;DHT22;17660;52.578;13.288;2023-03-05T04:08:11;2.80;99.90
30983;DHT22;17660;52.578;13.288;2023-03-05T04:10:38;2.80;99.90
30983;DHT22;17660;52.578;13.288;2023-03-05T04:13:05;2.80;99.90
30983;DHT22;17660;52.578;13.288;2023-03-05T04:15:32;2.80;99.90
30983;DHT22;17660;52.578;13.288;2023-03-05T04:17:59;2.70;99.90
30983;DHT22;17660;52.578;13.288;2023-03-05T04:20:26;2.70;99.90
30983;DHT22;17660;52.578;13.288;2023-03-05T04:22:53;2.70;99.90
30983;DHT22;17660;52.578;13.288;2023-03-05T04:25:19;2.60;99.90
30983;DHT22;17660;52.578;13.288;2023-03-05T04:27:46;2.60;99.90
30983;DHT22;17660;52.578;13.288;2023-03-05T04:30:13;2.70;99.90
30983;DHT22;17660;52.578;13.288;2023-03-05T04:32:40;2.60;99.90
30983;DHT22;17660;52.578;13.288;2023-03-05T04:35:07;2.60;99.90
30983;DHT22;17660;52.578;13.288;2023-03-05T04:37:34;2.60;99.90
30983;DHT22;17660;52.578;13.288;2023-03-05T04:40:01;2.60;99.90
30983;DHT22;17660;52.578;13.288;2023-03-05T04:42:28;2.60;99.90
30983;DHT22;17660;52.578;13.288;2023-03-05T04:44:55;2.50;99.90
30983;DHT22;17660;52.578;13.288;2023-03-05T04:47:22;2.50;99.90
30983;DHT22;17660;52.578;13.288;2023-03-05T04:49:48;2.50;99.90
30983;DHT22;17660;52.578;13.288;2023-03-05T04:52:15;2.50;99.90
30983;DHT22;17660;52.578;13.288;2023-03-05T04:54:43;2.50;99.90
30983;DHT22;17660;52.578;13.288;2023-03-05T04:57:11;2.50;99.90
30983;DHT22;17660;52.578;13.288;2023-03-05T04:59:37;2.50;99.90
30983;DHT22;17660;52.578;13.288;2023-03-05T05:02:04;2.50;99.90
30983;DHT22;17660;52.578;13.288;2023-03-05T05:04:31;2.50;99.90
30983;DHT22;17660;52.578;13.288;2023-03-05T05:06:58;2.50;99.90
30983;DHT22;17660;52.578;13.288;2023-03-05T05:09:25;2.40;99.90
30983;DHT22;17660;52.578;13.288;2023-03-05T05:11:52;2.40;99.90
30983;DHT22;17660;52.578;13.288;2023-03-05T05:14:19;2.40;99.90
30983;DHT22;17660;52.578;13.288;2023-03-05T05:16:46;2.40;99.90
30983;DHT22;17660;52.578;13.288;2023-03-05T05:19:13;2.40;99.90
30983;DHT22;17660;52.578;13.288;2023-03-05T05:21:40;2.40;99.90
30983;DHT22;17660;52.578;13.288;2023-03-05T05:24:06;2.40;99.90
30983;DHT22;17660;52.578;13.288;2023-03-05T05:26:33;2.30;99.90
30983;DHT22;17660;52.578;13.288;2023-03-05T05:29:00;2.30;99.90
30983;DHT22;17660;52.578;13.288;2023-03-05T05:31:27;2.20;99.90
30983;DHT22;17660;52.578;13.288;2023-03-05T05:33:53;2.30;99.90
30983;DHT22;17660;52.578;13.288;2023-03-05T05:36:20;2.30;99.90
30983;DHT22;17660;52.578;13.288;2023-03-05T05:38:48;2.40;99.90
30983;DHT22;17660;52.578;13.288;2023-03-05T05:41:16;2.30;99.90
30983;DHT22;17660;52.578;13.288;2023-03-05T05:43:43;2.30;99.90
30983;DHT22;17660;52.578;13.288;2023-03-05T05:46:13;2.30;99.90
30983;DHT22;17660;52.578;13.288;2023-03-05T05:48:40;2.30;99.90
30983;DHT22;17660;52.578;13.288;2023-03-05T05:51:19;2.30;99.90
30983;DHT22;17660;52.578;13.288;2023-03-05T05:53:46;2.40;99.90
30983;DHT22;17660;52.578;13.288;2023-03-05T05:56:14;2.50;99.90
30983;DHT22;17660;52.578;13.288;2023-03-05T05:58:43;2.40;99.90
30983;DHT22;17660;52.578;13.288;2023-03-05T06:01:18;2.40;99.90
30983;DHT22;17660;52.578;13.288;2023-03-05T06:03:46;2.50;99.90
30983;DHT22;17660;52.578;13.288;2023-03-05T06:06:16;2.50;99.90
30983;DHT22;17660;52.578;13.288;2023-03-05T06:08:43;2.50;99.90
30983;DHT22;17660;52.578;13.288;2023-03-05T06:11:10;2.50;99.90
30983;DHT22;17660;52.578;13.288;2023-03-05T06:13:37;2.60;99.90
30983;DHT22;17660;52.578;13.288;2023-03-05T06:16:08;2.60;99.90
30983;DHT22;17660;52.578;13.288;2023-03-05T06:18:35;2.60;99.90
30983;DHT22;17660;52.578;13.288;2023-03-05T06:21:07;2.60;99.90
30983;DHT22;17660;52.578;13.288;2023-03-05T06:23:34;2.70;99.90
30983;DHT22;17660;52.578;13.288;2023-03-05T06:26:02;2.80;99.90
30983;DHT22;17660;52.578;13.288;2023-03-05T06:28:30;2.90;99.90
30983;DHT22;17660;52.578;13.288;2023-03-05T06:31:08;2.90;99.90
30983;DHT22;17660;52.578;13.288;2023-03-05T06:33:35;3.00;99.90
30983;DHT22;17660;52.578;13.288;2023-03-05T06:36:16;3.00;99.90
30983;DHT22;17660;52.578;13.288;2023-03-05T06:38:43;3.10;99.90
30983;DHT22;17660;52.578;13.288;2023-03-05T06:41:12;3.20;99.90
30983;DHT22;17660;52.578;13.288;2023-03-05T06:43:42;3.40;99.90
30983;DHT22;17660;52.578;13.288;2023-03-05T06:46:29;3.50;99.90
30983;DHT22;17660;52.578;13.288;2023-03-05T06:48:59;3.50;99.90
30983;DHT22;17660;52.578;13.288;2023-03-05T06:51:26;3.50;99.90
30983;DHT22;17660;52.578;13.288;2023-03-05T06:53:55;3.50;99.90
30983;DHT22;17660;52.578;13.288;2023-03-05T06:56:22;3.60;99.90
30983;DHT22;17660;52.578;13.288;2023-03-05T06:58:50;3.70;99.90
30983;DHT22;17660;52.578;13.288;2023-03-05T07:01:18;3.60;99.90
30983;DHT22;17660;52.578;13.288;2023-03-05T07:03:51;3.70;99.90
30983;DHT22;17660;52.578;13.288;2023-03-05T07:06:20;3.80;99.90
30983;DHT22;17660;52.578;13.288;2023-03-05T07:08:47;3.80;99.90
30983;DHT22;17660;52.578;13.288;2023-03-05T07:11:16;3.90;99.90
30983;DHT22;17660;52.578;13.288;2023-03-05T07:13:44;4.10;99.90
30983;DHT22;17660;52.578;13.288;2023-03-05T07:16:15;4.20;99.90
30983;DHT22;17660;52.578;13.288;2023-03-05T07:18:43;4.20;99.90
30983;DHT22;17660;52.578;13.288;2023-03-05T07:21:16;4.20;99.90
30983;DHT22;17660;52.578;13.288;2023-03-05T07:23:43;4.20;99.90
30983;DHT22;17660;52.578;13.288;2023-03-05T07:26:11;4.30;99.90
30983;DHT22;17660;52.578;13.288;2023-03-05T07:28:38;4.10;99.90
30983;DHT22;17660;52.578;13.288;2023-03-05T07:31:07;4.00;99.90
30983;DHT22;17660;52.578;13.288;2023-03-05T07:33:34;4.00;99.90
30983;DHT22;17660;52.578;13.288;2023-03-05T07:36:09;4.10;99.90
30983;DHT22;17660;52.578;13.288;2023-03-05T07:38:36;4.00;99.90
30983;DHT22;17660;52.578;13.288;2023-03-05T07:41:09;4.10;99.90
30983;DHT22;17660;52.578;13.288;2023-03-05T07:43:37;4.10;99.90
30983;DHT22;17660;52.578;13.288;2023-03-05T07:46:05;4.10;99.90
30983;DHT22;17660;52.578;13.288;2023-03-05T07:48:33;4.10;99.90
30983;DHT22;17660;52.578;13.288;2023-03-05T07:51:02;4.10;99.90
30983;DHT22;17660;52.578;13.288;2023-03-05T07:53:29;4.20;99.90
30983;DHT22;17660;52.578;13.288;2023-03-05T07:55:56;4.40;99.90
30983;DHT22;17660;52.578;13.288;2023-03-05T07:58:22;4.50;99.80
30983;DHT22;17660;52.578;13.288;2023-03-05T08:00:50;4.40;99.70
30983;DHT22;17660;52.578;13.288;2023-03-05T08:03:16;4.30;99.60
30983;DHT22;17660;52.578;13.288;2023-03-05T08:05:43;4.50;99.60
30983;DHT22;17660;52.578;13.288;2023-03-05T08:08:10;4.60;99.30
30983;DHT22;17660;52.578;13.288;2023-03-05T08:10:37;4.90;98.90
30983;DHT22;17660;52.578;13.288;2023-03-05T08:13:05;4.90;99.00
30983;DHT22;17660;52.578;13.288;2023-03-05T08:15:32;5.10;98.60
30983;DHT22;17660;52.578;13.288;2023-03-05T08:17:59;5.20;98.60
30983;DHT22;17660;52.578;13.288;2023-03-05T08:20:26;5.40;98.10
30983;DHT22;17660;52.578;13.288;2023-03-05T08:22:52;5.60;97.30
30983;DHT22;17660;52.578;13.288;2023-03-05T08:25:19;5.60;97.40
30983;DHT22;17660;52.578;13.288;2023-03-05T08:27:47;5.60;97.10
30983;DHT22;17660;52.578;13.288;2023-03-05T08:30:19;5.80;97.00
30983;DHT22;17660;52.578;13.288;2023-03-05T08:32:50;6.10;97.00
30983;DHT22;17660;52.578;13.288;2023-03-05T08:35:17;6.50;95.60
30983;DHT22;17660;52.578;13.288;2023-03-05T08:37:44;6.60;95.50
30983;DHT22;17660;52.578;13.288;2023-03-05T08:40:11;6.80;94.70
30983;DHT22;17660;52.578;13.288;2023-03-05T08:42:38;6.50;94.40
30983;DHT22;17660;52.578;13.288;2023-03-05T08:45:05;6.30;94.50
30983;DHT22;17660;52.578;13.288;2023-03-05T08:47:32;6.20;94.60
30983;DHT22;17660;52.578;13.288;2023-03-05T08:49:59;6.20;94.30
30983;DHT22;17660;52.578;13.288;2023-03-05T08:52:25;6.20;94.20
30983;DHT22;17660;52.578;13.288;2023-03-05T08:54:52;6.20;93.50
30983;DHT22;17660;52.578;13.288;2023-03-05T08:57:19;6.20;93.70
30983;DHT22;17660;52.578;13.288;2023-03-05T08:59:46;6.10;93.20
30983;DHT22;17660;52.578;13.288;2023-03-05T09:02:13;6.10;93.60
30983;DHT22;17660;52.578;13.288;2023-03-05T09:04:40;6.30;93.30
30983;DHT22;17660;52.578;13.288;2023-03-05T09:07:06;6.70;93.40
30983;DHT22;17660;52.578;13.288;2023-03-05T09:09:33;6.80;93.00
30983;DHT22;17660;52.578;13.288;2023-03-05T09:12:01;7.10;92.90
30983;DHT22;17660;52.578;13.288;2023-03-05T09:14:28;7.20;92.40
30983;DHT22;17660;52.578;13.288;2023-03-05T09:16:56;7.30;92.00
30983;DHT22;17660;52.578;13.288;2023-03-05T09:19:23;7.40;91.70
30983;DHT22;17660;52.578;13.288;2023-03-05T09:21:50;7.10;90.60
30983;DHT22;17660;52.578;13.288;2023-03-05T09:24:17;6.80;91.80
30983;DHT22;17660;52.578;13.288;2023-03-05T09:26:43;6.70;91.90
30983;DHT22;17660;52.578;13.288;2023-03-05T09:29:10;6.70;92.50
30983;DHT22;17660;52.578;13.288;2023-03-05T09:31:38;6.70;92.40
30983;DHT22;17660;52.578;13.288;2023-03-05T09:34:05;6.60;92.30
30983;DHT22;17660;52.578;13.288;2023-03-05T09:36:34;6.40;92.60
30983;DHT22;17660;52.578;13.288;2023-03-05T09:39:01;6.10;92.90
30983;DHT22;17660;52.578;13.288;2023-03-05T09:46:52;6.10;93.00
30983;DHT22;17660;52.578;13.288;2023-03-05T09:52:12;6.20;92.20
30983;DHT22;17660;52.578;13.288;2023-03-05T09:54:45;6.40;92.40
30983;DHT22;17660;52.578;13.288;2023-03-05T09:57:17;6.50;91.70
30983;DHT22;17660;52.578;13.288;2023-03-05T10:02:28;6.40;92.50
30983;DHT22;17660;52.578;13.288;2023-03-05T10:07:30;6.40;92.30
30983;DHT22;17660;52.578;13.288;2023-03-05T10:09:59;6.30;92.40
30983;DHT22;17660;52.578;13.288;2023-03-05T10:12:38;6.20;92.00
30983;DHT22;17660;52.578;13.288;2023-03-05T10:17:49;6.10;92.00
30983;DHT22;17660;52.578;13.288;2023-03-05T10:25:57;5.90;91.90
30983;DHT22;17660;52.578;13.288;2023-03-05T10:31:29;5.80;91.80
30983;DHT22;17660;52.578;13.288;2023-03-05T10:37:02;5.80;93.20
30983;DHT22;17660;52.578;13.288;2023-03-05T10:39:58;5.70;94.20
30983;DHT22;17660;52.578;13.288;2023-03-05T10:50:37;5.50;95.00
30983;DHT22;17660;52.578;13.288;2023-03-05T10:55:50;5.90;94.20
30983;DHT22;17660;52.578;13.288;2023-03-05T10:58:23;5.80;94.10
30983;DHT22;17660;52.578;13.288;2023-03-05T11:03:49;5.90;94.20
30983;DHT22;17660;52.578;13.288;2023-03-05T11:06:34;5.90;94.10
30983;DHT22;17660;52.578;13.288;2023-03-05T11:09:15;6.00;94.30
30983;DHT22;17660;52.578;13.288;2023-03-05T11:11:43;6.10;94.00
30983;DHT22;17660;52.578;13.288;2023-03-05T11:14:30;6.20;93.90
30983;DHT22;17660;52.578;13.288;2023-03-05T11:17:01;6.30;93.70
30983;DHT22;17660;52.578;13.288;2023-03-05T11:19:29;6.50;93.70
30983;DHT22;17660;52.578;13.288;2023-03-05T11:22:22;6.40;93.30
30983;DHT22;17660;52.578;13.288;2023-03-05T11:25:14;6.30;93.60
30983;DHT22;17660;52.578;13.288;2023-03-05T11:27:50;6.40;93.60
30983;DHT22;17660;52.578;13.288;2023-03-05T11:30:31;6.60;93.20
30983;DHT22;17660;52.578;13.288;2023-03-05T11:33:16;6.80;93.00
30983;DHT22;17660;52.578;13.288;2023-03-05T11:36:09;7.10;92.80
30983;DHT22;17660;52.578;13.288;2023-03-05T11:38:57;7.50;92.40
30983;DHT22;17660;52.578;13.288;2023-03-05T11:41:28;8.40;91.60
30983;DHT22;17660;52.578;13.288;2023-03-05T11:43:58;8.60;91.10
30983;DHT22;17660;52.578;13.288;2023-03-05T11:46:27;8.80;90.70
30983;DHT22;17660;52.578;13.288;2023-03-05T11:48:55;8.80;90.70
30983;DHT22;17660;52.578;13.288;2023-03-05T11:51:35;8.50;90.50
30983;DHT22;17660;52.578;13.288;2023-03-05T11:54:10;8.10;91.20
30983;DHT22;17660;52.578;13.288;2023-03-05T11:56:38;7.70;91.10
30983;DHT22;17660;52.578;13.288;2023-03-05T12:01:46;7.30;91.10
30983;DHT22;17660;52.578;13.288;2023-03-05T12:04:15;8.20;90.80
30983;DHT22;17660;52.578;13.288;2023-03-05T12:07:12;8.80;90.00
30983;DHT22;17660;52.578;13.288;2023-03-05T12:09:42;9.10;88.90
30983;DHT22;17660;52.578;13.288;2023-03-05T12:14:52;8.60;88.90
30983;DHT22;17660;52.578;13.288;2023-03-05T12:17:32;8.60;90.00
30983;DHT22;17660;52.578;13.288;2023-03-05T12:20:07;8.50;88.40
30983;DHT22;17660;52.578;13.288;2023-03-05T12:22:40;8.40;86.90
30983;DHT22;17660;52.578;13.288;2023-03-05T12:25:27;8.80;86.30
30983;DHT22;17660;52.578;13.288;2023-03-05T12:27:54;9.50;84.20
30983;DHT22;17660;52.578;13.288;2023-03-05T12:33:03;9.30;84.00
30983;DHT22;17660;52.578;13.288;2023-03-05T12:37:59;9.30;84.10
30983;DHT22;17660;52.578;13.288;2023-03-05T12:45:37;8.50;84.60
30983;DHT22;17660;52.578;13.288;2023-03-05T12:55:37;8.50;85.70
30983;DHT22;17660;52.578;13.288;2023-03-05T13:03:10;8.70;82.10
30983;DHT22;17660;52.578;13.288;2023-03-05T13:05:46;8.60;81.20
30983;DHT22;17660;52.578;13.288;2023-03-05T13:11:19;8.30;81.90
30983;DHT22;17660;52.578;13.288;2023-03-05T13:13:42;8.30;81.00
30983;DHT22;17660;52.578;13.288;2023-03-05T13:16:19;8.40;82.40
30983;DHT22;17660;52.578;13.288;2023-03-05T13:18:48;8.60;81.70
30983;DHT22;17660;52.578;13.288;2023-03-05T13:21:16;9.10;81.80
30983;DHT22;17660;52.578;13.288;2023-03-05T13:23:53;9.60;81.00
30983;DHT22;17660;52.578;13.288;2023-03-05T13:26:35;10.00;81.90
30983;DHT22;17660;52.578;13.288;2023-03-05T13:29:04;10.00;80.70
30983;DHT22;17660;52.578;13.288;2023-03-05T13:31:31;9.60;82.40
30983;DHT22;17660;52.578;13.288;2023-03-05T13:34:05;9.10;83.40
30983;DHT22;17660;52.578;13.288;2023-03-05T13:36:33;8.70;83.50
30983;DHT22;17660;52.578;13.288;2023-03-05T13:38:59;8.40;85.00
30983;DHT22;17660;52.578;13.288;2023-03-05T13:41:27;8.20;86.40
30983;DHT22;17660;52.578;13.288;2023-03-05T13:43:58;8.00;84.50
30983;DHT22;17660;52.578;13.288;2023-03-05T13:46:29;7.70;84.40
30983;DHT22;17660;52.578;13.288;2023-03-05T13:48:56;7.40;85.30
30983;DHT22;17660;52.578;13.288;2023-03-05T13:51:39;7.10;85.20
30983;DHT22;17660;52.578;13.288;2023-03-05T13:54:05;7.00;85.20
30983;DHT22;17660;52.578;13.288;2023-03-05T13:56:35;7.00;85.40
30983;DHT22;17660;52.578;13.288;2023-03-05T13:59:02;6.70;83.80
30983;DHT22;17660;52.578;13.288;2023-03-05T14:01:41;6.50;85.40
30983;DHT22;17660;52.578;13.288;2023-03-05T14:07:23;6.50;84.70
30983;DHT22;17660;52.578;13.288;2023-03-05T14:12:05;6.60;84.60
30983;DHT22;17660;52.578;13.288;2023-03-05T14:14:36;6.90;84.80
30983;DHT22;17660;52.578;13.288;2023-03-05T14:17:19;7.00;84.40
30983;DHT22;17660;52.578;13.288;2023-03-05T14:19:46;6.90;84.60
30983;DHT22;17660;52.578;13.288;2023-03-05T14:22:30;7.00;85.10
30983;DHT22;17660;52.578;13.288;2023-03-05T14:24:57;7.20;86.00
30983;DHT22;17660;52.578;13.288;2023-03-05T14:27:24;7.00;85.70
30983;DHT22;17660;52.578;13.288;2023-03-05T14:29:51;6.80;86.10
30983;DHT22;17660;52.578;13.288;2023-03-05T14:32:23;6.80;87.80
30983;DHT22;17660;52.578;13.288;2023-03-05T14:34:55;6.60;86.30
30983;DHT22;17660;52.578;13.288;2023-03-05T14:37:30;6.50;87.30
30983;DHT22;17660;52.578;13.288;2023-03-05T14:44:55;6.30;88.50
30983;DHT22;17660;52.578;13.288;2023-03-05T14:47:22;6.20;88.00
30983;DHT22;17660;52.578;13.288;2023-03-05T14:49:50;6.10;88.90
30983;DHT22;17660;52.578;13.288;2023-03-05T14:52:17;5.90;89.00
30983;DHT22;17660;52.578;13.288;2023-03-05T14:54:44;5.90;90.10
30983;DHT22;17660;52.578;13.288;2023-03-05T14:57:18;6.00;90.10
30983;DHT22;17660;52.578;13.288;2023-03-05T14:59:46;6.00;90.50
30983;DHT22;17660;52.578;13.288;2023-03-05T15:02:17;6.10;90.60
30983;DHT22;17660;52.578;13.288;2023-03-05T15:04:44;6.10;90.70
30983;DHT22;17660;52.578;13.288;2023-03-05T15:07:16;6.00;90.80
30983;DHT22;17660;52.578;13.288;2023-03-05T15:09:43;5.90;91.10
30983;DHT22;17660;52.578;13.288;2023-03-05T15:12:14;5.70;91.10
30983;DHT22;17660;52.578;13.288;2023-03-05T15:14:40;5.60;91.30
30983;DHT22;17660;52.578;13.288;2023-03-05T15:17:10;5.50;91.50
30983;DHT22;17660;52.578;13.288;2023-03-05T15:19:39;5.50;91.70
30983;DHT22;17660;52.578;13.288;2023-03-05T15:22:05;5.50;91.90
30983;DHT22;17660;52.578;13.288;2023-03-05T15:24:32;5.50;91.80
30983;DHT22;17660;52.578;13.288;2023-03-05T15:26:58;5.50;91.70
30983;DHT22;17660;52.578;13.288;2023-03-05T15:29:25;5.50;91.80
30983;DHT22;17660;52.578;13.288;2023-03-05T15:31:52;5.60;92.00
30983;DHT22;17660;52.578;13.288;2023-03-05T15:34:20;5.50;92.20
30983;DHT22;17660;52.578;13.288;2023-03-05T15:36:47;5.50;92.40
30983;DHT22;17660;52.578;13.288;2023-03-05T15:39:13;5.50;92.80
30983;DHT22;17660;52.578;13.288;2023-03-05T15:41:40;5.50;92.70
30983;DHT22;17660;52.578;13.288;2023-03-05T15:44:07;5.40;92.80
30983;DHT22;17660;52.578;13.288;2023-03-05T15:46:33;5.40;92.80
30983;DHT22;17660;52.578;13.288;2023-03-05T15:49:00;5.40;93.20
30983;DHT22;17660;52.578;13.288;2023-03-05T15:51:28;5.50;93.40
30983;DHT22;17660;52.578;13.288;2023-03-05T15:53:54;5.30;93.30
30983;DHT22;17660;52.578;13.288;2023-03-05T15:56:21;5.40;93.70
30983;DHT22;17660;52.578;13.288;2023-03-05T15:58:48;5.30;93.50
30983;DHT22;17660;52.578;13.288;2023-03-05T16:01:16;5.30;93.60
30983;DHT22;17660;52.578;13.288;2023-03-05T16:03:45;5.20;93.70
30983;DHT22;17660;52.578;13.288;2023-03-05T16:06:12;5.20;93.70
30983;DHT22;17660;52.578;13.288;2023-03-05T16:08:39;5.00;93.80
30983;DHT22;17660;52.578;13.288;2023-03-05T16:11:06;4.90;93.80
30983;DHT22;17660;52.578;13.288;2023-03-05T16:13:33;4.90;93.90
30983;DHT22;17660;52.578;13.288;2023-03-05T16:16:00;4.80;94.00
30983;DHT22;17660;52.578;13.288;2023-03-05T16:18:28;4.60;94.30
30983;DHT22;17660;52.578;13.288;2023-03-05T16:20:55;4.70;94.50
30983;DHT22;17660;52.578;13.288;2023-03-05T16:23:22;4.70;94.40
30983;DHT22;17660;52.578;13.288;2023-03-05T16:25:49;4.60;94.60
30983;DHT22;17660;52.578;13.288;2023-03-05T16:28:16;4.50;94.80
30983;DHT22;17660;52.578;13.288;2023-03-05T16:30:42;4.60;94.90
30983;DHT22;17660;52.578;13.288;2023-03-05T16:33:09;4.70;95.00
30983;DHT22;17660;52.578;13.288;2023-03-05T16:35:36;4.50;95.00
30983;DHT22;17660;52.578;13.288;2023-03-05T16:38:02;4.50;95.10
30983;DHT22;17660;52.578;13.288;2023-03-05T16:40:29;4.50;95.40
30983;DHT22;17660;52.578;13.288;2023-03-05T16:43:17;4.50;95.70
30983;DHT22;17660;52.578;13.288;2023-03-05T16:45:43;4.40;95.60
30983;DHT22;17660;52.578;13.288;2023-03-05T16:48:10;4.40;95.80
30983;DHT22;17660;52.578;13.288;2023-03-05T16:50:37;4.40;95.80
30983;DHT22;17660;52.578;13.288;2023-03-05T16:53:03;4.40;96.00
30983;DHT22;17660;52.578;13.288;2023-03-05T16:55:30;4.40;96.10
30983;DHT22;17660;52.578;13.288;2023-03-05T16:57:56;4.30;96.10
30983;DHT22;17660;52.578;13.288;2023-03-05T17:00:23;4.30;96.20
30983;DHT22;17660;52.578;13.288;2023-03-05T17:02:50;4.20;96.40
30983;DHT22;17660;52.578;13.288;2023-03-05T17:05:16;4.20;96.40
30983;DHT22;17660;52.578;13.288;2023-03-05T17:07:43;4.20;96.60
30983;DHT22;17660;52.578;13.288;2023-03-05T17:10:10;4.20;96.90
30983;DHT22;17660;52.578;13.288;2023-03-05T17:12:37;4.20;97.00